createdAt,value
2018-08-03T00:00:55.193Z,21.40
2018-08-03T00:03:23.604Z,19.67
2018-08-03T00:05:52.018Z,20.70
2018-08-03T00:08:20.533Z,21.47
2018-08-03T00:10:48.924Z,24.67
2018-08-03T00:13:17.287Z,23.90
2018-08-03T00:15:45.705Z,25.03
2018-08-03T00:18:14.252Z,22.70
2018-08-03T00:20:42.884Z,22.73
2018-08-03T00:23:11.315Z,21.23
2018-08-03T00:25:39.737Z,21.13
2018-08-03T00:28:08.143Z,22.50
2018-08-03T00:30:36.548Z,22.23
2018-08-03T00:33:04.932Z,21.10
2018-08-03T00:35:33.370Z,21.13
2018-08-03T00:38:01.818Z,19.40
2018-08-03T00:40:30.160Z,20.07
2018-08-03T00:42:58.607Z,19.03
2018-08-03T00:45:27.134Z,19.07
2018-08-03T00:47:55.589Z,20.03
2018-08-03T00:50:24.050Z,20.53
2018-08-03T00:52:52.467Z,20.90
2018-08-03T00:55:20.912Z,23.43
2018-08-03T00:57:49.528Z,22.07
2018-08-03T01:00:18.023Z,21.83
2018-08-03T01:02:46.396Z,23.03
2018-08-03T01:05:14.772Z,22.70
2018-08-03T01:07:43.140Z,22.37
2018-08-03T01:10:11.563Z,23.43
2018-08-03T01:12:39.910Z,23.13
2018-08-03T01:15:08.343Z,22.40
2018-08-03T01:17:36.775Z,24.57
2018-08-03T01:20:05.874Z,24.70
2018-08-03T01:22:34.252Z,26.37
2018-08-03T01:25:02.732Z,25.80
2018-08-03T01:27:31.113Z,26.10
2018-08-03T01:29:59.519Z,25.67
2018-08-03T01:32:27.913Z,25.97
2018-08-03T01:34:56.280Z,26.33
2018-08-03T01:37:24.709Z,27.63
2018-08-03T01:39:53.078Z,27.67
2018-08-03T01:42:21.480Z,25.83
2018-08-03T01:44:49.889Z,26.00
2018-08-03T01:47:18.337Z,26.40
2018-08-03T01:49:46.680Z,23.87
2018-08-03T01:52:15.044Z,24.30
2018-08-03T01:54:43.442Z,23.97
2018-08-03T01:57:11.833Z,25.30
2018-08-03T01:59:40.225Z,24.63
2018-08-03T02:02:08.657Z,25.30
2018-08-03T02:04:37.022Z,24.80
2018-08-03T02:07:05.431Z,23.97
2018-08-03T02:09:33.865Z,24.00
2018-08-03T02:12:02.253Z,24.53
2018-08-03T02:14:30.725Z,24.10
2018-08-03T02:16:59.185Z,24.00
2018-08-03T02:19:27.676Z,25.00
2018-08-03T02:21:56.101Z,25.00
2018-08-03T02:24:24.571Z,29.00
2018-08-03T02:26:53.023Z,26.73
2018-08-03T02:29:21.422Z,25.60
2018-08-03T02:31:49.801Z,26.23
2018-08-03T02:34:18.174Z,34.70
2018-08-03T02:36:46.560Z,27.60
2018-08-03T02:39:14.924Z,26.90
2018-08-03T02:41:43.336Z,27.77
2018-08-03T02:44:11.797Z,25.63
2018-08-03T02:46:40.128Z,26.77
2018-08-03T02:49:08.485Z,27.30
2018-08-03T02:51:36.924Z,33.10
2018-08-03T02:54:05.331Z,24.97
2018-08-03T02:56:33.692Z,25.97
2018-08-03T02:59:02.150Z,26.20
2018-08-03T03:01:30.580Z,25.67
2018-08-03T03:03:58.949Z,25.93
2018-08-03T03:06:27.377Z,27.00
2018-08-03T03:08:55.926Z,24.60
2018-08-03T03:11:24.288Z,26.10
2018-08-03T03:13:52.684Z,25.53
2018-08-03T03:16:21.086Z,26.93
2018-08-03T03:18:49.458Z,25.17
2018-08-03T03:21:17.865Z,25.53
2018-08-03T03:23:46.264Z,26.40
2018-08-03T03:26:14.639Z,26.90
2018-08-03T03:28:43.037Z,26.80
2018-08-03T03:31:11.440Z,25.70
2018-08-03T03:33:39.828Z,27.83
2018-08-03T03:36:08.236Z,26.03
2018-08-03T03:38:36.606Z,25.97
2018-08-03T03:41:04.978Z,26.17
2018-08-03T03:43:33.350Z,28.00
2018-08-03T03:46:01.739Z,24.90
2018-08-03T03:48:30.102Z,25.10
2018-08-03T03:50:58.573Z,26.17
2018-08-03T03:53:26.649Z,26.33
2018-08-03T03:55:55.045Z,25.63
2018-08-03T03:58:23.441Z,24.93
2018-08-03T04:00:51.860Z,26.57
2018-08-03T04:03:20.275Z,30.03
2018-08-03T04:05:48.664Z,27.10
2018-08-03T04:08:17.047Z,25.40
2018-08-03T04:10:45.486Z,24.53
2018-08-03T04:13:13.529Z,26.23
2018-08-03T04:15:41.627Z,24.60
2018-08-03T04:18:12.645Z,24.17
2018-08-03T04:20:41.051Z,25.33
2018-08-03T04:23:09.492Z,24.30
2018-08-03T04:25:37.954Z,25.70
2018-08-03T04:28:06.275Z,26.27
2018-08-03T04:30:34.675Z,23.30
2018-08-03T04:33:03.068Z,24.37
2018-08-03T04:35:31.452Z,26.40
2018-08-03T04:37:59.842Z,24.63
2018-08-03T04:40:28.225Z,24.40
2018-08-03T04:42:56.594Z,26.40
2018-08-03T04:45:24.967Z,27.00
2018-08-03T04:47:53.416Z,24.67
2018-08-03T04:50:21.806Z,24.63
2018-08-03T04:52:50.256Z,25.17
2018-08-03T04:55:18.680Z,23.97
2018-08-03T04:57:47.206Z,23.10
2018-08-03T05:00:15.619Z,23.57
2018-08-03T05:02:43.997Z,23.13
2018-08-03T05:05:12.359Z,22.30
2018-08-03T05:07:40.850Z,24.40
2018-08-03T05:10:09.182Z,23.00
2018-08-03T05:12:37.672Z,23.10
2018-08-03T05:15:06.869Z,21.23
2018-08-03T05:17:35.293Z,23.43
2018-08-03T05:20:03.841Z,22.70
2018-08-03T05:22:32.237Z,23.80
2018-08-03T05:25:00.765Z,23.57
2018-08-03T05:27:29.116Z,22.50
2018-08-03T05:29:57.507Z,24.33
2018-08-03T05:32:25.925Z,26.17
2018-08-03T05:34:54.336Z,22.63
2018-08-03T05:37:22.759Z,24.43
2018-08-03T05:39:51.166Z,22.40
2018-08-03T05:42:19.649Z,23.07
2018-08-03T05:44:48.110Z,23.40
2018-08-03T05:47:16.466Z,24.07
2018-08-03T05:49:44.876Z,27.30
2018-08-03T05:52:13.288Z,23.80
2018-08-03T05:54:41.714Z,24.13
2018-08-03T05:57:10.102Z,23.50
2018-08-03T05:59:38.553Z,23.27
2018-08-03T06:02:06.970Z,25.40
2018-08-03T06:04:35.371Z,23.47
2018-08-03T06:07:03.822Z,23.07
2018-08-03T06:09:32.251Z,23.13
2018-08-03T06:12:00.615Z,22.50
2018-08-03T06:14:29.016Z,24.27
2018-08-03T06:16:57.448Z,22.73
2018-08-03T06:19:25.881Z,22.77
2018-08-03T06:21:54.349Z,22.73
2018-08-03T06:24:22.782Z,22.67
2018-08-03T06:26:51.176Z,22.43
2018-08-03T06:29:19.568Z,20.80
2018-08-03T06:31:48.012Z,20.17
2018-08-03T06:34:16.384Z,20.50
2018-08-03T06:36:44.800Z,20.87
2018-08-03T06:39:13.242Z,22.33
2018-08-03T06:41:42.448Z,21.80
2018-08-03T06:44:10.918Z,21.27
2018-08-03T06:46:39.409Z,21.10
2018-08-03T06:49:07.838Z,20.20
2018-08-03T06:51:36.264Z,19.23
2018-08-03T06:54:04.724Z,18.53
2018-08-03T06:56:33.212Z,19.13
2018-08-03T06:59:01.664Z,67.63
2018-08-03T07:01:30.079Z,18.80
2018-08-03T07:03:58.494Z,19.43
2018-08-03T07:06:26.922Z,19.63
2018-08-03T07:08:55.358Z,18.63
2018-08-03T07:11:23.817Z,17.70
2018-08-03T07:13:52.215Z,19.20
2018-08-03T07:16:20.642Z,18.33
2018-08-03T07:18:49.057Z,17.40
2018-08-03T07:21:24.267Z,17.37
2018-08-03T07:23:52.735Z,15.80
2018-08-03T07:26:21.182Z,15.60
2018-08-03T07:28:50.209Z,15.80
2018-08-03T07:31:18.802Z,17.30
2018-08-03T07:33:47.771Z,17.00
2018-08-03T07:36:16.480Z,19.57
2018-08-03T07:38:45.215Z,15.90
2018-08-03T07:41:13.626Z,15.50
2018-08-03T07:43:42.061Z,15.37
2018-08-03T07:46:10.636Z,16.97
2018-08-03T07:48:39.084Z,17.37
2018-08-03T07:51:07.669Z,16.17
2018-08-03T07:53:36.127Z,15.50
2018-08-03T07:56:04.546Z,14.27
2018-08-03T07:58:32.987Z,15.20
2018-08-03T08:01:01.578Z,15.73
2018-08-03T08:03:30.258Z,14.53
2018-08-03T08:05:58.669Z,15.67
2018-08-03T08:08:27.094Z,23.53
2018-08-03T08:10:55.582Z,15.03
2018-08-03T08:13:24.024Z,15.23
2018-08-03T08:15:52.123Z,13.93
2018-08-03T08:18:20.605Z,14.07
2018-08-03T08:20:49.053Z,16.17
2018-08-03T08:23:17.536Z,13.70
2018-08-03T08:25:45.932Z,15.23
2018-08-03T08:28:14.346Z,13.90
2018-08-03T08:30:42.841Z,14.73
2018-08-03T08:33:11.235Z,14.87
2018-08-03T08:35:39.608Z,13.77
2018-08-03T08:38:08.149Z,13.77
2018-08-03T08:40:36.560Z,13.53
2018-08-03T08:43:05.081Z,13.47
2018-08-03T08:45:33.620Z,14.10
2018-08-03T08:48:02.039Z,19.20
2018-08-03T08:50:30.504Z,21.33
2018-08-03T08:52:59.137Z,13.17
2018-08-03T08:55:27.476Z,13.00
2018-08-03T08:57:55.917Z,15.43
2018-08-03T09:00:24.442Z,13.57
2018-08-03T09:02:52.903Z,13.40
2018-08-03T09:05:21.456Z,12.97
2018-08-03T09:07:49.978Z,14.73
2018-08-03T09:10:18.394Z,13.50
2018-08-03T09:12:47.015Z,13.53
2018-08-03T09:15:15.457Z,16.43
2018-08-03T09:17:43.864Z,12.33
2018-08-03T09:20:12.313Z,13.20
2018-08-03T09:22:40.809Z,12.70
2018-08-03T09:25:09.385Z,19.73
2018-08-03T09:27:37.907Z,12.37
2018-08-03T09:30:08.540Z,14.07
2018-08-03T09:32:36.914Z,15.53
2018-08-03T09:35:05.873Z,13.73
2018-08-03T09:37:34.385Z,13.10
2018-08-03T09:40:02.899Z,14.30
2018-08-03T09:42:31.503Z,12.40
2018-08-03T09:44:59.904Z,14.23
2018-08-03T09:47:28.468Z,13.07
2018-08-03T09:49:56.891Z,23.23
2018-08-03T09:52:25.391Z,12.60
2018-08-03T09:54:56.647Z,12.33
2018-08-03T09:58:07.104Z,11.63
2018-08-03T10:00:41.069Z,15.17
2018-08-03T10:03:09.644Z,13.10
2018-08-03T10:05:38.055Z,12.17
2018-08-03T10:08:06.508Z,12.20
2018-08-03T10:10:34.887Z,12.73
2018-08-03T10:13:03.340Z,11.70
2018-08-03T10:15:31.792Z,13.47
2018-08-03T10:18:00.241Z,11.73
2018-08-03T10:20:28.831Z,12.17
2018-08-03T10:22:57.286Z,11.90
2018-08-03T10:25:25.772Z,11.97
2018-08-03T10:27:54.361Z,11.57
2018-08-03T10:30:22.804Z,12.53
2018-08-03T10:32:51.213Z,10.87
2018-08-03T10:35:19.672Z,11.50
2018-08-03T10:37:48.140Z,13.43
2018-08-03T10:40:16.558Z,8.93
2018-08-03T10:42:44.789Z,10.80
2018-08-03T10:45:12.988Z,9.03
2018-08-03T10:47:41.180Z,9.40
2018-08-03T10:50:09.259Z,7.37
2018-08-03T10:52:37.396Z,7.80
2018-08-03T10:55:05.530Z,7.17
2018-08-03T10:57:33.703Z,6.27
2018-08-03T11:00:01.813Z,6.10
2018-08-03T11:02:29.930Z,7.30
2018-08-03T11:04:58.057Z,5.93
2018-08-03T11:07:26.157Z,5.70
2018-08-03T11:09:54.552Z,5.07
2018-08-03T11:12:22.704Z,4.70
2018-08-03T11:14:50.831Z,5.50
2018-08-03T11:17:19.327Z,5.13
2018-08-03T11:19:47.436Z,4.17
2018-08-03T11:22:15.595Z,4.17
2018-08-03T11:24:43.791Z,4.77
2018-08-03T11:27:11.900Z,4.10
2018-08-03T11:29:40.120Z,4.53
2018-08-03T11:32:08.245Z,4.17
2018-08-03T11:34:36.437Z,4.77
2018-08-03T11:37:04.680Z,4.73
2018-08-03T11:39:32.785Z,4.83
2018-08-03T11:42:00.967Z,6.73
2018-08-03T11:44:29.144Z,5.30
2018-08-03T11:46:57.308Z,6.27
2018-08-03T11:49:25.464Z,4.03
2018-08-03T11:51:53.636Z,3.87
2018-08-03T11:54:21.752Z,4.03
2018-08-03T11:56:51.111Z,4.20
2018-08-03T11:59:19.315Z,3.70
2018-08-03T12:01:47.466Z,4.00
2018-08-03T12:04:15.546Z,4.00
2018-08-03T12:06:43.689Z,3.70
2018-08-03T12:09:11.792Z,4.50
2018-08-03T12:11:39.950Z,4.97
2018-08-03T12:14:08.041Z,4.07
2018-08-03T12:16:36.161Z,3.93
2018-08-03T12:19:04.271Z,3.53
2018-08-03T12:21:32.403Z,3.77
2018-08-03T12:24:00.555Z,3.43
2018-08-03T12:26:28.728Z,3.40
2018-08-03T12:28:56.879Z,3.97
2018-08-03T12:31:25.000Z,3.43
2018-08-03T12:33:53.196Z,3.40
2018-08-03T12:36:21.398Z,3.83
2018-08-03T12:38:49.587Z,4.03
2018-08-03T12:41:17.720Z,3.10
2018-08-03T12:43:45.860Z,3.30
2018-08-03T12:46:13.961Z,4.10
2018-08-03T12:48:42.073Z,4.13
2018-08-03T12:51:10.415Z,4.10
2018-08-03T12:53:38.576Z,3.73
2018-08-03T12:56:06.730Z,3.47
2018-08-03T12:58:34.915Z,3.60
2018-08-03T13:01:03.082Z,3.60
2018-08-03T13:03:31.248Z,4.70
2018-08-03T13:05:59.361Z,3.90
2018-08-03T13:08:27.561Z,5.20
2018-08-03T13:10:55.641Z,9.53
2018-08-03T13:13:23.813Z,5.00
2018-08-03T13:15:51.954Z,4.00
2018-08-03T13:18:20.209Z,4.47
2018-08-03T13:20:48.344Z,3.80
2018-08-03T13:23:16.500Z,4.00
2018-08-03T13:25:44.761Z,4.30
2018-08-03T13:28:12.891Z,27.67
2018-08-03T13:30:41.065Z,6.57
2018-08-03T13:33:09.297Z,7.40
2018-08-03T13:35:37.512Z,5.57
2018-08-03T13:38:05.688Z,9.73
2018-08-03T13:40:33.785Z,6.67
2018-08-03T13:43:01.903Z,4.00
2018-08-03T13:45:30.055Z,4.40
2018-08-03T13:47:58.260Z,4.83
2018-08-03T13:50:26.450Z,4.03
2018-08-03T13:52:54.580Z,3.80
2018-08-03T13:55:22.740Z,4.03
2018-08-03T13:57:50.942Z,3.40
2018-08-03T14:00:19.014Z,2.90
2018-08-03T14:02:47.177Z,3.75
2018-08-03T14:05:15.292Z,3.43
2018-08-03T14:07:43.413Z,2.80
2018-08-03T14:10:11.620Z,3.93
2018-08-03T14:12:39.710Z,2.70
2018-08-03T14:15:08.004Z,2.70
2018-08-03T14:17:36.259Z,2.62
2018-08-03T14:20:05.167Z,2.90
2018-08-03T14:22:33.380Z,3.60
2018-08-03T14:25:01.560Z,3.80
2018-08-03T14:27:29.642Z,3.20
2018-08-03T14:29:57.727Z,4.03
2018-08-03T14:32:26.005Z,3.83
2018-08-03T14:34:54.224Z,5.20
2018-08-03T14:37:22.324Z,4.40
2018-08-03T14:39:50.415Z,4.10
2018-08-03T14:42:18.520Z,4.20
2018-08-03T14:44:46.673Z,4.63
2018-08-03T15:06:53.585Z,4.87
2018-08-03T15:09:21.671Z,4.97
2018-08-03T15:11:49.840Z,4.87
2018-08-03T15:14:18.026Z,5.10
2018-08-03T15:16:46.125Z,4.33
2018-08-03T15:19:14.281Z,6.90
2018-08-03T15:21:42.359Z,5.97
2018-08-03T15:24:10.477Z,4.37
2018-08-03T15:34:00.652Z,3.60
2018-08-03T15:36:28.759Z,3.80
2018-08-03T15:38:56.867Z,3.80
2018-08-03T15:41:24.945Z,4.10
2018-08-03T15:43:53.243Z,3.80
2018-08-03T15:46:21.341Z,3.70
2018-08-03T15:48:49.525Z,3.70
2018-08-03T15:51:17.596Z,5.30
2018-08-03T15:53:45.838Z,4.57
2018-08-03T15:56:14.001Z,5.50
2018-08-03T15:58:42.254Z,4.40
2018-08-03T16:01:10.349Z,5.13
2018-08-03T16:03:38.509Z,4.97
2018-08-03T16:06:06.633Z,4.90
2018-08-03T16:08:34.780Z,4.50
2018-08-03T16:11:02.961Z,4.67
2018-08-03T16:13:31.047Z,4.37
2018-08-03T16:15:59.197Z,4.93
2018-08-03T16:18:27.364Z,4.80
2018-08-03T16:20:55.506Z,4.60
2018-08-03T16:23:23.588Z,5.23
2018-08-03T16:25:51.940Z,5.63
2018-08-03T16:28:20.029Z,5.47
2018-08-03T16:30:48.208Z,5.60
2018-08-03T16:33:16.363Z,5.70
2018-08-03T16:35:44.446Z,5.83
2018-08-03T16:38:12.590Z,5.37
2018-08-03T16:40:40.698Z,6.97
2018-08-03T16:43:08.854Z,7.60
2018-08-03T16:45:36.985Z,6.83
2018-08-03T16:48:05.424Z,6.00
2018-08-03T16:50:33.516Z,6.03
2018-08-03T16:53:01.617Z,5.53
2018-08-03T16:55:29.679Z,6.30
2018-08-03T16:57:57.793Z,6.03
2018-08-03T17:00:25.896Z,6.10
2018-08-03T17:02:54.022Z,6.30
2018-08-03T17:05:22.116Z,5.90
2018-08-03T17:07:50.323Z,5.60
2018-08-03T17:10:18.451Z,6.27
2018-08-03T17:12:46.531Z,7.13
2018-08-03T17:15:14.627Z,7.40
2018-08-03T17:17:42.770Z,6.50
2018-08-03T17:20:10.924Z,5.93
2018-08-03T17:22:38.978Z,6.40
2018-08-03T17:25:07.129Z,5.87
2018-08-03T17:27:35.206Z,5.77
2018-08-03T17:30:03.379Z,6.27
2018-08-03T17:32:31.542Z,6.20
2018-08-03T17:34:59.958Z,6.93
2018-08-03T17:37:28.341Z,7.67
2018-08-03T17:39:56.789Z,6.83
2018-08-03T17:42:25.352Z,7.50
2018-08-03T17:44:53.751Z,6.97
2018-08-03T17:47:22.153Z,7.23
2018-08-03T17:49:50.649Z,7.40
2018-08-03T17:52:19.083Z,6.53
2018-08-03T17:54:47.577Z,6.60
2018-08-03T17:57:15.905Z,7.17
2018-08-03T17:59:44.695Z,12.20
2018-08-03T18:02:13.127Z,6.33
2018-08-03T18:04:41.623Z,6.93
2018-08-03T18:07:10.111Z,6.87
2018-08-03T18:09:38.622Z,6.70
2018-08-03T18:12:07.094Z,6.43
2018-08-03T18:14:35.597Z,7.23
2018-08-03T18:17:03.982Z,7.23
2018-08-03T18:19:32.395Z,6.60
2018-08-03T18:22:00.903Z,6.70
2018-08-03T18:24:29.383Z,7.57
2018-08-03T18:26:57.789Z,8.33
2018-08-03T18:29:26.285Z,14.43
2018-08-03T18:31:54.657Z,7.33
2018-08-03T18:34:23.980Z,7.40
2018-08-03T18:36:53.138Z,13.00
2018-08-03T18:39:21.850Z,12.00
2018-08-03T18:41:50.585Z,7.97
2018-08-03T18:44:19.175Z,8.47
2018-08-03T18:46:47.790Z,8.30
2018-08-03T18:49:16.429Z,8.07
2018-08-03T18:51:45.448Z,7.40
2018-08-03T18:54:14.369Z,8.07
2018-08-03T18:56:43.247Z,8.27
2018-08-03T18:59:12.385Z,8.53
2018-08-03T19:01:40.999Z,8.03
2018-08-03T19:04:09.488Z,8.07
2018-08-03T19:06:38.136Z,9.20
2018-08-03T19:09:07.774Z,21.17
2018-08-03T19:11:36.849Z,10.23
2018-08-03T19:14:05.785Z,11.53
2018-08-03T19:16:34.229Z,10.50
2018-08-03T19:19:02.663Z,9.80
2018-08-03T19:21:31.180Z,7.77
2018-08-03T19:23:59.649Z,8.60
2018-08-03T19:26:28.227Z,9.30
2018-08-03T19:28:56.637Z,11.53
2018-08-03T19:31:25.117Z,10.63
2018-08-03T19:33:53.937Z,10.67
2018-08-03T19:36:22.373Z,17.73
2018-08-03T19:38:50.792Z,11.20
2018-08-03T19:41:19.213Z,10.50
2018-08-03T19:43:47.703Z,10.87
2018-08-03T19:46:16.186Z,11.23
2018-08-03T19:48:44.718Z,11.90
2018-08-03T19:51:13.165Z,12.27
2018-08-03T19:53:41.628Z,11.67
2018-08-03T19:56:10.063Z,12.27
2018-08-03T19:58:38.593Z,11.43
2018-08-03T20:01:06.930Z,12.83
2018-08-03T20:03:35.368Z,13.27
2018-08-03T20:06:03.995Z,11.53
2018-08-03T20:08:32.418Z,13.40
2018-08-03T20:11:00.890Z,13.07
2018-08-03T20:13:29.401Z,12.93
2018-08-03T20:15:57.479Z,12.80
2018-08-03T20:18:25.613Z,12.37
2018-08-03T20:20:53.684Z,13.23
2018-08-03T20:23:21.852Z,14.00
2018-08-03T20:25:50.251Z,14.97
2018-08-03T20:28:18.478Z,12.97
2018-08-03T20:30:46.698Z,13.67
2018-08-03T20:33:15.032Z,13.67
2018-08-03T20:35:43.748Z,13.87
2018-08-03T20:38:11.879Z,13.10
2018-08-03T20:40:40.007Z,14.30
2018-08-03T20:43:08.144Z,15.33
2018-08-03T20:45:36.333Z,15.63
2018-08-03T20:48:04.589Z,14.43
2018-08-03T20:50:32.677Z,14.23
2018-08-03T20:53:00.830Z,14.40
2018-08-03T20:55:28.957Z,13.50
2018-08-03T20:57:57.029Z,13.57
2018-08-03T21:00:25.166Z,12.90
2018-08-03T21:02:53.333Z,13.67
2018-08-03T21:05:21.771Z,14.37
2018-08-03T21:07:49.885Z,13.87
2018-08-03T21:10:17.992Z,13.97
2018-08-03T21:12:46.239Z,13.50
2018-08-03T21:15:14.278Z,13.13
2018-08-03T21:17:42.407Z,13.87
2018-08-03T21:20:10.667Z,14.47
2018-08-03T21:22:39.762Z,14.00
2018-08-03T21:25:08.641Z,13.43
2018-08-03T21:27:36.875Z,14.40
2018-08-03T21:30:06.161Z,15.27
2018-08-03T21:32:34.197Z,14.23
2018-08-03T21:35:02.267Z,13.40
2018-08-03T21:37:30.630Z,12.83
2018-08-03T21:39:58.681Z,14.07
2018-08-03T21:42:26.805Z,13.07
2018-08-03T21:44:54.865Z,14.40
2018-08-03T21:47:23.298Z,14.37
2018-08-03T21:49:51.412Z,14.30
2018-08-03T21:52:19.520Z,13.70
2018-08-03T21:54:47.632Z,15.20
2018-08-03T21:57:15.775Z,14.60
2018-08-03T21:59:43.873Z,14.40
2018-08-03T22:02:12.006Z,13.53
2018-08-03T22:04:40.213Z,15.07
2018-08-03T22:07:08.240Z,18.47
2018-08-03T22:09:36.394Z,14.77
2018-08-03T22:12:04.572Z,15.53
2018-08-03T22:14:32.689Z,14.90
2018-08-03T22:17:00.748Z,15.20
2018-08-03T22:19:28.903Z,18.13
2018-08-03T22:21:57.128Z,14.90
2018-08-03T22:24:25.359Z,32.67
2018-08-03T22:26:53.528Z,24.57
2018-08-03T22:29:21.680Z,15.40
2018-08-03T22:31:49.821Z,14.60
2018-08-03T22:34:17.940Z,15.00
2018-08-03T22:36:45.993Z,15.20
2018-08-03T22:39:14.132Z,14.80
2018-08-03T22:41:42.269Z,15.50
2018-08-03T22:44:12.045Z,15.90
2018-08-03T22:46:40.225Z,19.33
2018-08-03T22:49:08.420Z,15.27
2018-08-03T22:51:36.563Z,15.07
2018-08-03T22:54:04.663Z,16.77
2018-08-03T22:56:32.710Z,16.10
2018-08-03T22:59:00.815Z,16.67
2018-08-03T23:01:28.899Z,16.67
2018-08-03T23:03:57.017Z,15.77
2018-08-03T23:06:25.123Z,16.00
2018-08-03T23:08:53.307Z,16.00
2018-08-03T23:11:21.431Z,16.40
2018-08-03T23:13:49.521Z,17.20
2018-08-03T23:16:17.609Z,16.63
2018-08-03T23:18:45.767Z,16.17
2018-08-03T23:21:13.918Z,18.30
2018-08-03T23:23:42.013Z,15.60
2018-08-03T23:26:10.168Z,16.03
2018-08-03T23:28:38.234Z,17.07
2018-08-03T23:31:06.449Z,16.80
2018-08-03T23:33:34.512Z,17.03
2018-08-03T23:36:02.592Z,17.10
2018-08-03T23:38:30.716Z,16.20
2018-08-03T23:40:58.838Z,16.93
2018-08-03T23:43:26.962Z,17.10
2018-08-03T23:45:55.097Z,17.97
2018-08-03T23:48:23.212Z,18.00
2018-08-03T23:50:51.343Z,17.23
2018-08-03T23:53:19.419Z,17.10
2018-08-03T23:55:47.518Z,17.75
2018-08-03T23:58:15.621Z,21.95
